Time;durP1;ratioP1;P1;durP2;ratioP2;P2;SDS_P1;SDS_P2;PMS_P1;PMS_P2;Temp;Humidity;BMP_temperature;BMP_pressure;BME280_temperature;BME280_humidity;BME280_pressure;Samples;Min_cycle;Max_cycle;Signal;HPM_P1;HPM_P2
2022/11/13 00:01:40;;;;;;;0.50;0.50;;;19.30;61.10;;;19.23;44.32;96173.72;4852168;29;20189;-74
2022/11/13 00:04:26;;;;;;;0.40;0.40;;;19.30;61.10;;;19.26;44.42;96172.47;4851941;29;20193;-74
2022/11/13 00:07:11;;;;;;;0.50;0.50;;;19.30;62.10;;;19.26;44.37;96173.31;4865573;29;20202;-74
2022/11/13 00:09:57;;;;;;;0.60;0.60;;;19.30;61.20;;;19.27;44.28;96174.13;4851822;29;20210;-74
2022/11/13 00:12:43;;;;;;;0.50;0.50;;;19.30;61.10;;;19.27;44.58;96169.59;4852340;29;20735;-74
2022/11/13 00:15:28;;;;;;;0.50;0.50;;;19.30;61.10;;;19.26;44.33;96173.31;4851795;29;20529;-74
2022/11/13 00:18:14;;;;;;;0.50;0.50;;;19.30;61.10;;;19.27;44.42;96174.13;4865319;29;20274;-74
2022/11/13 00:21:06;;;;;;;0.47;0.47;;;19.30;61.10;;;19.20;44.74;96158.22;4865208;29;20205;-74
2022/11/13 00:23:52;;;;;;;0.40;0.40;;;19.30;61.10;;;19.25;44.52;96169.03;4851756;29;20198;-74
2022/11/13 00:26:38;;;;;;;0.40;0.40;;;19.30;61.10;;;19.25;44.64;96157.56;4851734;29;20264;-74
2022/11/13 00:29:24;;;;;;;0.40;0.40;;;19.30;61.10;;;19.20;44.54;96161.69;4851432;29;20319;-75
2022/11/13 00:32:09;;;;;;;0.50;0.50;;;19.30;61.10;;;19.25;44.64;96165.53;4851789;29;20617;-74
2022/11/13 00:34:55;;;;;;;0.50;0.50;;;19.30;61.10;;;19.24;44.37;96153.25;4851494;29;20202;-74
2022/11/13 00:37:40;;;;;;;0.50;0.50;;;19.30;61.00;;;19.25;44.31;96157.56;4858005;29;20574;-74
2022/11/13 00:40:26;;;;;;;0.40;0.40;;;19.30;61.10;;;19.18;44.42;96153.09;4858384;29;20270;-74
2022/11/13 00:43:12;;;;;;;0.50;0.50;;;19.20;61.00;;;19.23;44.25;96159.63;4846537;29;20202;-74
2022/11/13 00:45:57;;;;;;;0.50;0.50;;;19.30;61.10;;;19.22;44.35;96153.47;4858814;29;20248;-75
2022/11/13 00:48:43;;;;;;;0.50;0.50;;;19.30;61.10;;;19.23;44.64;96143.69;4846003;29;20206;-74
2022/11/13 00:51:29;;;;;;;0.50;0.50;;;19.30;61.10;;;19.18;44.25;96131.81;4846811;29;20198;-74
2022/11/13 00:54:14;;;;;;;0.35;0.35;;;19.30;61.10;;;19.20;44.67;96132.44;4858694;29;20193;-74
2022/11/13 00:57:00;;;;;;;0.40;0.40;;;19.30;61.10;;;19.22;44.57;96134.06;4845679;29;20243;-74
2022/11/13 00:59:45;;;;;;;0.45;0.45;;;19.30;61.10;;;19.22;44.35;96134.06;4845387;29;20210;-74
2022/11/13 01:02:30;;;;;;;0.50;0.50;;;19.30;61.10;;;19.21;44.74;96122.59;4846209;29;20194;-74
2022/11/13 01:05:16;;;;;;;0.60;0.60;;;19.20;61.00;;;19.22;44.26;96126.88;4845186;29;20194;-74
2022/11/13 01:08:04;;;;;;;0.47;0.47;;;19.30;61.10;;;19.22;44.67;96120.75;4858609;29;20206;-74
2022/11/13 01:10:49;;;;;;;0.50;0.50;;;19.30;61.10;;;19.21;44.05;96122.59;4858094;29;20658;-75
2022/11/13 01:13:40;;;;;;;0.40;0.40;;;19.20;61.00;;;19.21;44.71;96111.94;4845958;29;20252;-74
2022/11/13 01:16:27;;;;;;;0.40;0.40;;;19.20;61.00;;;19.20;44.43;96116.47;4845203;29;20542;-74
2022/11/13 01:19:13;;;;;;;0.50;0.50;;;19.20;61.00;;;19.20;44.33;96111.16;4845057;29;20653;-74
2022/11/13 01:21:59;;;;;;;0.40;0.40;;;19.20;61.00;;;19.20;44.15;96105.84;4858016;29;20213;-74
2022/11/13 01:24:45;;;;;;;0.40;0.40;;;19.20;61.00;;;19.21;44.16;96114.59;4845277;29;20193;-74
2022/11/13 01:27:31;;;;;;;0.50;0.50;;;19.20;61.00;;;19.19;44.69;96109.50;4845331;29;20291;-74
2022/11/13 01:30:17;;;;;;;0.50;0.50;;;19.20;61.00;;;19.14;44.21;96104.03;4857990;29;20537;-74
2022/11/13 01:33:03;;;;;;;0.50;0.50;;;19.20;61.00;;;19.20;44.70;96115.66;4845646;29;20205;-74
2022/11/13 01:35:48;;;;;;;0.45;0.45;;;19.20;61.00;;;19.18;44.66;96120.38;4861227;29;20696;-74
2022/11/13 01:38:34;;;;;;;0.52;0.52;;;19.20;61.10;;;19.17;44.24;96116.09;4863839;29;20221;-74
2022/11/13 01:41:30;;;;;;;0.43;0.43;;;19.20;61.00;;;19.15;44.23;96111.00;4850423;29;20201;-74
2022/11/13 01:44:18;;;;;;;0.50;0.50;;;19.20;61.00;;;19.17;44.61;96116.09;4850654;29;20205;-74
2022/11/13 01:47:04;;;;;;;0.50;0.50;;;19.20;61.00;;;19.14;44.72;96104.03;4850644;29;20213;-74
2022/11/13 01:49:57;;;;;;;0.50;0.50;;;19.20;61.00;;;19.17;44.80;96108.09;4850071;29;20292;-75
2022/11/13 01:52:43;;;;;;;0.43;0.43;;;19.20;61.10;;;19.16;44.49;96104.66;4850372;29;20208;-74
2022/11/13 01:55:29;;;;;;;0.50;0.50;;;19.20;61.00;;;19.13;44.69;96096.28;4850080;29;20202;-74
2022/11/13 01:58:15;;;;;;;0.40;0.40;;;19.20;61.00;;;19.14;44.71;96093.41;4849870;29;20285;-74
2022/11/13 02:01:01;;;;;;;0.50;0.50;;;19.20;61.00;;;19.14;44.34;96088.09;4836903;29;20193;-74
2022/11/13 02:03:47;;;;;;;0.40;0.40;;;19.20;61.00;;;19.16;44.05;96090.53;4849970;29;20189;-74
2022/11/13 02:06:40;;;;;;;0.40;0.40;;;19.20;61.00;;;19.13;44.08;96090.97;4850140;29;20243;-74
2022/11/13 02:09:43;;;;;;;0.60;0.60;;;19.20;61.00;;;19.13;44.28;96080.31;4849337;29;20205;-75
2022/11/13 02:12:40;;;;;;;0.50;0.50;;;19.20;61.00;;;19.11;44.53;96069.88;4849550;29;20213;-74
2022/11/13 02:15:28;;;;;;;0.50;0.50;;;19.20;61.00;;;19.13;44.45;96078.47;4849776;29;20286;-74
2022/11/13 02:18:15;;;;;;;0.50;0.50;;;19.20;61.10;;;19.11;44.23;96074.41;4836868;29;20296;-74
2022/11/13 02:21:24;;;;;;;0.43;0.43;;;19.20;61.00;;;19.11;44.47;96064.56;4863164;29;20209;-74
2022/11/13 02:24:37;;;;;;;0.50;0.50;;;19.20;61.00;;;19.10;44.20;96070.13;4863221;29;20274;-74
2022/11/13 02:27:35;;;;;;;0.50;0.50;;;19.10;60.90;;;19.09;44.40;96069.31;4850369;29;20210;-74
2022/11/13 02:30:28;;;;;;;0.57;0.57;;;19.10;61.00;;;19.01;44.36;96064.25;4849711;29;20213;-74
2022/11/13 02:33:25;;;;;;;0.47;0.47;;;19.10;60.90;;;19.09;44.53;96068.47;4863126;29;20532;-74
2022/11/13 02:36:12;;;;;;;0.50;0.50;;;19.10;61.00;;;19.07;44.79;96067.91;4837645;29;20286;-74
2022/11/13 02:39:04;;;;;;;0.50;0.50;;;19.10;60.90;;;19.08;44.32;96058.88;4849439;29;20221;-74
2022/11/13 02:41:49;;;;;;;0.50;0.50;;;19.10;61.00;;;19.08;44.28;96062.34;4849419;29;20198;-74
2022/11/13 02:44:35;;;;;;;0.50;0.50;;;19.10;61.00;;;19.08;44.80;96061.53;4849358;29;20518;-74
2022/11/13 02:47:21;;;;;;;0.50;0.50;;;19.10;61.00;;;19.09;44.75;96061.34;4862057;29;20201;-74
2022/11/13 02:50:09;;;;;;;0.50;0.50;;;19.10;61.00;;;19.08;44.70;96049.06;4862061;29;20256;-74
2022/11/13 02:52:54;;;;;;;0.60;0.60;;;19.10;61.00;;;19.08;44.38;96058.88;4862915;29;20193;-74
2022/11/13 02:55:40;;;;;;;0.50;0.50;;;19.10;61.00;;;19.05;44.68;96046.81;4849581;29;20196;-74
2022/11/13 02:58:26;;;;;;;0.50;0.50;;;19.10;61.00;;;19.06;44.60;96053.78;4849493;29;20233;-74
2022/11/13 03:01:12;;;;;;;0.50;0.50;;;19.10;61.10;;;19.07;44.71;96058.06;4862672;29;20205;-74
2022/11/13 03:03:59;;;;;;;0.50;0.50;;;19.10;61.10;;;19.08;44.12;96048.22;4863036;29;20201;-74
2022/11/13 03:06:44;;;;;;;0.52;0.52;;;19.10;61.00;;;19.04;44.41;96051.34;4849189;29;20318;-74
2022/11/13 03:09:30;;;;;;;0.50;0.50;;;19.10;61.00;;;19.03;44.45;96039.06;4861979;29;20258;-74
2022/11/13 03:12:16;;;;;;;0.40;0.40;;;19.10;62.00;;;19.06;44.60;96050.31;4862723;29;20197;-74
2022/11/13 03:15:03;;;;;;;0.40;0.40;;;19.10;61.10;;;19.04;44.53;96045.19;4862286;29;20202;-74
2022/11/13 03:17:49;;;;;;;0.50;0.50;;;19.10;61.10;;;19.06;44.46;96045.78;4849113;29;20225;-74
2022/11/13 03:20:37;;;;;;;0.50;0.50;;;19.10;61.10;;;19.06;44.23;96048.47;4864292;29;20197;-74
2022/11/13 03:23:23;;;;;;;0.50;0.50;;;19.10;61.00;;;19.05;44.56;96052.16;4865615;29;20221;-74
2022/11/13 03:26:14;;;;;;;0.50;0.50;;;19.10;61.10;;;19.05;44.37;96049.47;4852755;29;20204;-74
2022/11/13 03:28:59;;;;;;;0.40;0.40;;;19.10;61.00;;;19.04;44.02;96042.53;4852827;29;20205;-74
2022/11/13 03:31:45;;;;;;;0.50;0.50;;;19.10;61.10;;;19.03;44.41;96041.72;4866348;29;20242;-74
2022/11/13 03:34:31;;;;;;;0.50;0.50;;;19.10;61.00;;;19.02;44.26;96045.41;4865976;29;20682;-74
2022/11/13 03:37:17;;;;;;;0.43;0.43;;;19.10;61.10;;;19.00;44.70;96044.00;4865214;29;20268;-74
2022/11/13 03:40:02;;;;;;;0.50;0.50;;;19.10;61.00;;;19.03;44.68;96038.28;4865976;29;20198;-75
2022/11/13 03:42:48;;;;;;;0.50;0.50;;;19.10;61.00;;;19.04;44.68;96045.19;4865455;29;20213;-74
2022/11/13 03:45:34;;;;;;;0.50;0.50;;;19.10;61.00;;;19.03;44.15;96044.38;4852315;29;20338;-74
2022/11/13 03:48:19;;;;;;;0.52;0.52;;;19.10;61.90;;;19.02;44.29;96042.75;4852511;29;20197;-74
2022/11/13 03:51:05;;;;;;;0.50;0.50;;;19.10;61.00;;;19.02;44.49;96040.09;4852076;29;20274;-74
2022/11/13 03:53:51;;;;;;;0.40;0.40;;;19.00;61.00;;;19.02;44.33;96042.75;4851936;29;20302;-74
2022/11/13 03:56:37;;;;;;;0.50;0.50;;;19.10;61.00;;;19.00;44.45;96036.84;4865112;29;20645;-74
2022/11/13 03:59:22;;;;;;;0.50;0.50;;;19.10;61.00;;;18.96;44.63;96033.00;4864786;29;20547;-74
2022/11/13 04:02:08;;;;;;;0.47;0.47;;;19.10;61.00;;;18.97;44.33;96033.78;4865573;29;20196;-74
2022/11/13 04:04:54;;;;;;;0.45;0.45;;;19.10;62.00;;;18.99;44.63;96027.25;4852222;29;20638;-74
2022/11/13 04:07:39;;;;;;;0.50;0.50;;;19.10;61.00;;;19.01;44.55;96029.69;4864988;29;20194;-74
2022/11/13 04:10:26;;;;;;;0.50;0.50;;;19.00;61.00;;;18.98;44.71;96015.00;4852057;29;20637;-74
2022/11/13 04:13:11;;;;;;;0.40;0.40;;;19.00;60.90;;;18.98;44.64;96022.13;4851850;29;20196;-74
2022/11/13 04:15:57;;;;;;;0.60;0.60;;;19.10;61.00;;;19.00;44.18;96022.75;4852023;29;20683;-74
2022/11/13 04:18:42;;;;;;;0.55;0.55;;;19.00;61.00;;;18.98;44.87;96011.50;4865573;29;20347;-74
2022/11/13 04:21:28;;;;;;;0.50;0.50;;;19.00;60.90;;;18.97;44.31;96008.03;4864566;29;20254;-74
2022/11/13 04:24:14;;;;;;;0.50;0.50;;;19.00;61.00;;;18.97;44.54;95999.22;4851427;29;20198;-74
2022/11/13 04:27:00;;;;;;;0.52;0.52;;;19.00;61.00;;;18.98;44.48;95999.03;4865074;29;20281;-74
2022/11/13 04:29:45;;;;;;;0.40;0.40;;;19.00;61.00;;;18.98;44.53;96003.53;4851374;29;20274;-74
2022/11/13 04:32:32;;;;;;;0.50;0.50;;;19.00;61.00;;;18.98;44.44;96004.34;4851102;29;20205;-74
2022/11/13 04:35:17;;;;;;;0.50;0.50;;;19.00;61.00;;;18.96;44.80;96006.41;4864450;29;20198;-74
2022/11/13 04:38:03;;;;;;;0.50;0.50;;;19.00;61.00;;;18.97;44.73;96001.88;4864481;29;20286;-74
2022/11/13 04:42:47;;;;;;;0.40;0.40;;;19.00;61.00;;;18.97;44.63;96005.38;4851113;29;20230;-74
2022/11/13 04:43:56;;;;;;;0.60;0.60;;;19.00;61.00;;;18.95;44.15;95996.00;4854108;29;20197;-74
2022/11/13 04:46:41;;;;;;;0.50;0.50;;;19.00;61.00;;;18.96;44.43;96000.28;4851203;29;20687;-74
2022/11/13 04:49:26;;;;;;;0.52;0.52;;;19.00;61.00;;;18.94;44.73;95997.81;4851532;29;20201;-74
2022/11/13 04:52:13;;;;;;;0.50;0.50;;;19.00;61.10;;;18.95;44.56;95991.47;4864205;29;20201;-74
2022/11/13 04:54:58;;;;;;;0.52;0.52;;;19.00;61.00;;;18.92;44.67;95986.63;4864339;29;20338;-74
2022/11/13 04:57:43;;;;;;;0.50;0.50;;;19.00;61.00;;;18.95;44.56;95983.50;4864374;29;20214;-75
2022/11/13 05:00:29;;;;;;;0.50;0.50;;;19.00;61.00;;;18.95;44.85;95985.38;4863959;29;20534;-75
2022/11/13 05:03:15;;;;;;;0.50;0.50;;;19.00;61.00;;;18.95;44.70;95986.16;4864173;29;20205;-74
2022/11/13 05:06:06;;;;;;;0.50;0.50;;;19.00;61.00;;;18.92;44.70;95969.84;4851209;29;20679;-74
2022/11/13 05:08:52;;;;;;;0.50;0.50;;;19.00;61.00;;;18.90;44.67;95972.69;4850997;29;20201;-75
2022/11/13 05:11:37;;;;;;;0.60;0.60;;;19.00;61.10;;;18.93;44.64;95969.63;4864356;29;20205;-74
2022/11/13 05:14:23;;;;;;;0.50;0.50;;;19.00;62.00;;;18.93;44.73;95972.31;4863767;29;20274;-75
2022/11/13 05:17:11;;;;;;;0.40;0.40;;;19.00;61.00;;;18.94;44.17;95967.78;4863645;29;20273;-75
2022/11/13 05:19:57;;;;;;;0.50;0.50;;;19.00;61.00;;;18.93;44.75;95966.16;4850266;29;20221;-75
2022/11/13 05:22:42;;;;;;;0.50;0.50;;;19.00;61.00;;;18.93;44.62;95960.84;4863568;29;20274;-74
2022/11/13 05:25:30;;;;;;;0.50;0.50;;;19.00;61.00;;;18.94;44.70;95967.78;4864550;29;20701;-75
2022/11/13 05:28:15;;;;;;;0.50;0.50;;;19.00;61.90;;;18.94;44.37;95965.13;4851163;29;20567;-74
2022/11/13 05:31:13;;;;;;;0.50;0.50;;;19.00;61.00;;;18.88;44.30;95969.44;4850477;29;20262;-75
2022/11/13 05:33:59;;;;;;;0.40;0.40;;;19.00;61.00;;;18.92;44.09;95978.66;4850525;29;20196;-74
2022/11/13 05:36:50;;;;;;;0.50;0.50;;;19.00;61.00;;;18.93;44.85;95968.81;4863386;29;20237;-74
2022/11/13 05:39:36;;;;;;;0.50;0.50;;;19.00;61.90;;;18.92;44.31;95962.69;4850057;29;20222;-75
2022/11/13 05:42:22;;;;;;;0.40;0.40;;;19.00;61.00;;;18.91;44.23;95963.72;4862769;29;20198;-75
2022/11/13 05:45:08;;;;;;;0.50;0.50;;;18.90;61.00;;;18.91;44.27;95962.84;4862813;29;20575;-75
2022/11/13 05:47:54;;;;;;;0.40;0.40;;;18.90;60.90;;;18.91;44.64;95957.53;4863281;29;20662;-75
2022/11/13 05:50:39;;;;;;;0.50;0.50;;;19.00;61.00;;;18.90;44.27;95951.44;4863132;29;20300;-75
2022/11/13 05:53:26;;;;;;;0.40;0.40;;;18.90;61.00;;;18.91;44.46;95950.44;4850294;29;20294;-75
2022/11/13 05:56:29;;;;;;;0.50;0.50;;;18.90;60.90;;;18.89;44.75;95949.78;4863007;29;20284;-75
2022/11/13 05:59:15;;;;;;;0.60;0.60;;;18.90;60.90;;;18.90;44.03;95947.97;4849688;29;20296;-75
2022/11/13 06:02:00;;;;;;;0.50;0.50;;;18.90;60.90;;;18.88;44.45;95950.81;4849794;29;20629;-74
2022/11/13 06:04:48;;;;;;;0.47;0.47;;;18.90;60.90;;;18.85;44.60;95951.28;4863861;29;20198;-74
2022/11/13 06:07:36;;;;;;;0.50;0.50;;;18.90;60.90;;;18.83;44.97;95940.03;4850010;29;20197;-75
2022/11/13 06:10:21;;;;;;;0.55;0.55;;;18.90;61.00;;;18.87;44.55;95943.88;4862754;29;20193;-74
2022/11/13 06:13:06;;;;;;;0.43;0.43;;;18.90;61.00;;;18.88;44.52;95946.34;4862444;29;20709;-75
2022/11/13 06:15:53;;;;;;;0.40;0.40;;;18.90;61.00;;;18.87;44.78;95949.19;4849473;29;20194;-75
2022/11/13 06:18:41;;;;;;;0.50;0.50;;;18.90;61.00;;;18.88;44.13;95969.44;4862634;29;20282;-74
2022/11/13 06:21:30;;;;;;;0.50;0.50;;;18.90;61.00;;;18.87;44.11;95957.16;4849662;29;20237;-74
2022/11/13 06:24:16;;;;;;;0.50;0.50;;;18.90;61.00;;;18.86;44.58;95958.22;4849901;29;20201;-75
2022/11/13 06:27:01;;;;;;;0.40;0.40;;;18.90;61.00;;;18.86;44.46;95958.22;4849807;29;20202;-75
2022/11/13 06:29:47;;;;;;;0.50;0.50;;;18.90;61.00;;;18.87;44.11;95955.34;4862530;29;20246;-75
2022/11/13 06:32:32;;;;;;;0.50;0.50;;;18.90;61.00;;;18.84;44.37;95952.31;4862303;29;20342;-75
2022/11/13 06:35:18;;;;;;;0.50;0.50;;;18.90;61.00;;;18.86;44.46;95968.84;4862797;29;20240;-75
2022/11/13 06:38:03;;;;;;;0.50;0.50;;;18.90;61.00;;;18.85;43.92;95972.53;4849458;29;20193;-74
2022/11/13 06:40:49;;;;;;;0.45;0.45;;;18.90;61.00;;;18.85;44.36;95973.34;4849413;29;20193;-75
2022/11/13 06:43:34;;;;;;;0.55;0.55;;;18.90;61.00;;;18.86;44.52;95980.28;4849113;29;20209;-75
2022/11/13 06:46:25;;;;;;;0.50;0.50;;;18.90;61.90;;;18.82;44.79;95959.66;4862924;29;20197;-74
2022/11/13 06:49:11;;;;;;;0.50;0.50;;;18.90;61.00;;;18.82;44.22;95965.81;4849367;29;20201;-75
2022/11/13 06:51:57;;;;;;;0.50;0.50;;;18.90;61.00;;;18.86;44.41;95968.84;4862771;29;20243;-75
2022/11/13 06:54:42;;;;;;;0.50;0.50;;;18.90;61.00;;;18.85;44.55;95972.53;4849091;29;20298;-75
2022/11/13 06:57:27;;;;;;;0.50;0.50;;;18.90;61.00;;;18.85;44.28;95977.84;4836481;29;20213;-75
2022/11/13 07:00:13;;;;;;;0.50;0.50;;;18.90;60.90;;;18.85;44.73;95983.97;4849331;29;20680;-74
2022/11/13 07:02:59;;;;;;;0.50;0.50;;;18.90;61.00;;;18.86;44.69;95982.13;4862002;29;20210;-75
2022/11/13 07:05:45;;;;;;;0.40;0.40;;;18.90;61.00;;;18.83;44.16;95983.38;4836417;29;20227;-75
2022/11/13 07:08:31;;;;;;;0.40;0.40;;;18.90;61.00;;;18.86;44.48;95985.59;4849115;29;20196;-75
2022/11/13 07:11:20;;;;;;;0.50;0.50;;;18.90;61.00;;;18.85;44.27;95983.97;4848828;29;20201;-75
2022/11/13 07:14:07;;;;;;;0.50;0.50;;;18.90;60.90;;;18.84;44.00;95978.88;4849228;29;20308;-74
2022/11/13 07:16:52;;;;;;;0.50;0.50;;;18.90;61.00;;;18.84;44.64;95976.22;4849005;29;20209;-75
2022/11/13 07:19:55;;;;;;;0.50;0.50;;;18.90;61.00;;;18.82;44.14;95973.78;4851251;29;20301;-74
2022/11/13 07:22:41;;;;;;;0.50;0.50;;;18.90;60.90;;;18.83;44.35;95975.38;4848937;29;20201;-75
2022/11/13 07:25:28;;;;;;;0.40;0.40;;;18.90;60.90;;;18.83;44.26;95978.06;4849411;29;20270;-75
2022/11/13 07:28:14;;;;;;;0.50;0.50;;;18.90;61.00;;;18.84;44.81;95971.72;4848929;29;20702;-75
2022/11/13 07:31:00;;;;;;;0.50;0.50;;;18.90;61.00;;;18.80;44.51;95967.88;4848900;29;20582;-75
2022/11/13 07:33:49;;;;;;;0.50;0.50;;;18.90;60.90;;;18.81;44.10;95974.81;4836296;29;20201;-74
2022/11/13 07:36:34;;;;;;;0.50;0.50;;;18.90;60.90;;;18.84;44.62;95978.88;4848661;29;20249;-74
2022/11/13 07:39:20;;;;;;;0.50;0.50;;;18.90;61.00;;;18.84;44.52;95976.22;4862607;29;20221;-74
2022/11/13 07:42:06;;;;;;;0.50;0.50;;;18.90;61.00;;;18.84;44.62;95968.25;4848731;29;20292;-75
2022/11/13 07:44:51;;;;;;;0.40;0.40;;;18.90;61.00;;;18.84;44.60;95979.69;4849021;29;20193;-74
2022/11/13 07:47:41;;;;;;;0.50;0.50;;;18.90;61.00;;;18.83;44.36;95977.25;4862697;29;20278;-75
2022/11/13 07:50:29;;;;;;;0.40;0.40;;;18.90;61.00;;;18.84;44.34;95976.22;4862190;29;20193;-74
2022/11/13 07:53:16;;;;;;;0.50;0.50;;;18.90;61.00;;;18.83;44.24;95986.03;4848535;29;20205;-74
2022/11/13 07:56:03;;;;;;;0.50;0.50;;;18.90;61.00;;;18.82;44.68;95978.28;4849046;29;20283;-74
2022/11/13 07:58:49;;;;;;;0.50;0.50;;;18.90;60.90;;;18.82;44.25;95987.09;4848651;29;20198;-74
2022/11/13 08:01:34;;;;;;;0.50;0.50;;;18.90;61.00;;;18.79;44.35;95982.19;4848777;29;20274;-74
2022/11/13 08:04:20;;;;;;;0.60;0.60;;;18.90;61.00;;;18.82;44.83;95986.25;4862564;29;20323;-74
2022/11/13 08:07:06;;;;;;;0.47;0.47;;;18.90;61.00;;;18.84;44.70;95992.97;4850023;29;20274;-74
2022/11/13 08:09:52;;;;;;;0.50;0.50;;;18.90;61.00;;;18.85;44.37;95991.16;4851969;29;20201;-74
2022/11/13 08:12:38;;;;;;;0.50;0.50;;;18.90;60.90;;;18.83;44.45;95999.31;4865534;29;20258;-74
2022/11/13 08:15:24;;;;;;;0.30;0.30;;;18.90;61.00;;;18.83;44.45;95998.50;4852072;29;20540;-74
2022/11/13 08:18:10;;;;;;;0.50;0.50;;;18.90;61.00;;;18.84;44.46;95992.16;4851786;29;20262;-74
2022/11/13 08:20:56;;;;;;;0.50;0.50;;;18.90;61.00;;;18.85;44.21;95993.81;4865139;29;20301;-74
2022/11/13 08:23:42;;;;;;;0.50;0.50;;;18.90;61.00;;;18.81;44.17;95990.75;4838484;29;20189;-74
2022/11/13 08:26:27;;;;;;;0.52;0.52;;;18.90;61.00;;;18.84;44.49;95987.66;4865539;29;20521;-74
2022/11/13 08:29:13;;;;;;;0.40;0.40;;;18.90;61.00;;;18.81;44.55;95988.09;4865330;29;20642;-74
2022/11/13 08:31:58;;;;;;;0.40;0.40;;;18.90;60.90;;;18.84;44.41;95994.81;4865071;29;20193;-74
2022/11/13 08:34:45;;;;;;;0.50;0.50;;;18.90;60.90;;;18.83;44.69;95990.53;4865334;29;20201;-74
2022/11/13 08:37:32;;;;;;;0.40;0.40;;;18.90;60.90;;;18.83;44.48;95987.88;4849096;29;20689;-74
2022/11/13 08:40:17;;;;;;;0.50;0.50;;;18.90;60.90;;;18.80;44.38;95980.34;4851250;29;20224;-74
2022/11/13 08:43:04;;;;;;;0.40;0.40;;;18.90;60.90;;;18.84;44.34;95986.84;4851432;29;20580;-74
2022/11/13 08:45:49;;;;;;;0.40;0.40;;;18.90;61.00;;;18.84;44.82;95985.00;4851369;29;20202;-74
2022/11/13 08:48:36;;;;;;;0.50;0.50;;;18.90;60.90;;;18.83;44.00;95986.03;4851293;29;20291;-74
2022/11/13 08:51:22;;;;;;;0.40;0.40;;;18.80;60.90;;;18.83;44.34;95978.06;4864358;29;20197;-74
2022/11/13 08:54:08;;;;;;;0.50;0.50;;;18.90;60.90;;;18.84;44.70;95979.69;4864363;29;20306;-74
2022/11/13 08:56:53;;;;;;;0.50;0.50;;;18.90;60.90;;;18.84;44.04;95979.69;4864125;29;20574;-74
2022/11/13 08:59:44;;;;;;;0.50;0.50;;;18.90;61.00;;;18.83;44.20;95979.91;4864622;29;20326;-74
2022/11/13 09:02:29;;;;;;;0.40;0.40;;;18.90;60.90;;;18.82;44.21;95980.94;4863832;29;20446;-75
2022/11/13 09:05:15;;;;;;;0.40;0.40;;;18.90;60.90;;;18.84;44.36;95970.91;4863961;29;20205;-74
2022/11/13 09:08:01;;;;;;;0.47;0.47;;;18.90;61.00;;;18.85;44.15;95985.81;4864328;29;20274;-74
2022/11/13 09:10:47;;;;;;;0.50;0.50;;;18.90;60.90;;;18.85;44.17;95978.66;4850796;29;20201;-74
2022/11/13 09:13:33;;;;;;;0.40;0.40;;;18.90;61.00;;;18.85;44.56;95981.31;4850918;29;20299;-74
2022/11/13 09:16:25;;;;;;;0.50;0.50;;;18.90;60.90;;;18.86;44.48;95984.81;4864693;29;20318;-74
2022/11/13 09:19:11;;;;;;;0.50;0.50;;;18.90;61.00;;;18.84;44.12;95992.97;4850553;29;20197;-74
2022/11/13 09:21:57;;;;;;;0.50;0.50;;;18.90;60.90;;;18.84;44.49;95985.00;4863637;29;20198;-74
2022/11/13 09:24:42;;;;;;;0.50;0.50;;;18.90;60.90;;;18.83;44.46;95986.03;4850895;29;20202;-74
2022/11/13 09:27:28;;;;;;;0.50;0.50;;;18.90;61.00;;;18.84;44.68;95992.97;4863935;29;20198;-74
2022/11/13 09:30:15;;;;;;;0.40;0.40;;;18.90;60.90;;;18.85;44.09;95989.28;4850445;29;20201;-74
2022/11/13 09:33:01;;;;;;;0.50;0.50;;;18.90;60.90;;;18.83;44.14;95985.22;4863894;29;20282;-74
2022/11/13 09:35:46;;;;;;;0.50;0.50;;;18.90;60.90;;;18.86;44.15;95987.47;4863375;29;20248;-74
2022/11/13 09:38:32;;;;;;;0.50;0.50;;;18.90;60.90;;;18.85;44.33;95997.25;4850072;29;20201;-74
2022/11/13 09:41:30;;;;;;;0.50;0.50;;;18.90;60.90;;;18.86;44.32;95993.56;4837443;29;20558;-74
2022/11/13 09:44:37;;;;;;;0.50;0.50;;;18.90;61.00;;;18.80;44.53;95994.44;4849990;29;20205;-75
2022/11/13 09:47:41;;;;;;;0.40;0.40;;;18.90;60.90;;;18.84;44.45;95986.84;4863630;29;20534;-75
2022/11/13 09:50:30;;;;;;;0.40;0.40;;;18.90;60.90;;;18.84;44.58;95976.22;4837329;29;20208;-74
2022/11/13 09:53:16;;;;;;;0.40;0.40;;;18.90;60.90;;;18.84;44.21;95978.88;4850262;29;20201;-74
2022/11/13 09:56:26;;;;;;;0.38;0.38;;;18.90;60.90;;;18.83;44.35;95974.59;4850279;29;20197;-74
2022/11/13 09:59:31;;;;;;;0.50;0.50;;;18.90;60.90;;;18.73;44.77;95959.94;4850115;29;20727;-75
2022/11/13 10:03:04;;;;;;;0.50;0.50;;;18.90;60.90;;;18.80;44.62;95975.03;4850274;29;20197;-74
2022/11/13 10:06:27;;;;;;;0.50;0.50;;;18.90;60.90;;;18.81;44.53;95964.19;4863591;29;20197;-74
2022/11/13 10:09:48;;;;;;;0.45;0.45;;;18.90;61.80;;;18.68;44.70;95943.03;4863289;29;20531;-74
2022/11/13 10:12:34;;;;;;;0.52;0.52;;;18.90;60.90;;;18.79;44.63;95949.50;4850047;29;20193;-74
2022/11/13 10:15:20;;;;;;;0.50;0.50;;;18.90;60.90;;;18.81;44.70;95964.19;4850076;29;20304;-74
2022/11/13 10:18:34;;;;;;;0.40;0.40;;;18.90;60.90;;;18.81;44.15;95952.72;4863493;29;20292;-75
2022/11/13 10:21:47;;;;;;;0.40;0.40;;;18.90;61.00;;;18.78;44.39;95950.50;4849891;29;20278;-74
2022/11/13 10:24:44;;;;;;;0.47;0.47;;;18.90;60.90;;;18.80;44.73;95945.81;4851031;29;20293;-75
2022/11/13 10:27:30;;;;;;;0.60;0.60;;;18.90;60.90;;;18.81;44.60;95953.56;4863053;29;20382;-74
2022/11/13 10:30:18;;;;;;;0.30;0.30;;;18.90;60.90;;;18.83;44.66;95961.28;4849011;29;20254;-74
2022/11/13 10:33:07;;;;;;;0.40;0.40;;;18.90;60.90;;;18.82;44.70;95954.34;4836740;29;20335;-74
2022/11/13 10:36:50;;;;;;;0.50;0.50;;;18.90;60.90;;;18.81;44.63;95948.22;4849249;29;20236;-74
2022/11/13 10:39:45;;;;;;;0.50;0.50;;;18.90;60.90;;;18.81;44.49;95937.59;4862619;29;20229;-74
2022/11/13 10:42:40;;;;;;;0.40;0.40;;;18.90;60.90;;;18.79;44.21;95920.25;4836972;29;20524;-74
2022/11/13 10:45:26;;;;;;;0.40;0.40;;;18.90;60.90;;;18.82;44.21;95920.63;4836848;29;20217;-74
2022/11/13 10:48:28;;;;;;;0.50;0.50;;;18.90;60.90;;;18.82;44.07;95925.13;4863055;29;20242;-74
2022/11/13 10:51:36;;;;;;;0.40;0.40;;;18.90;60.90;;;18.79;44.24;95918.41;4849381;29;20201;-74
2022/11/13 10:54:31;;;;;;;0.50;0.50;;;18.90;60.90;;;18.81;44.78;95911.03;4862918;29;20282;-74
2022/11/13 10:57:34;;;;;;;0.50;0.50;;;18.90;61.80;;;18.82;44.11;95917.13;4849474;29;20193;-74
2022/11/13 11:00:30;;;;;;;0.45;0.45;;;18.90;60.90;;;18.77;44.37;95901.84;4836545;29;20238;-74
2022/11/13 11:03:23;;;;;;;0.40;0.40;;;18.90;60.90;;;18.77;44.67;95904.50;4849167;29;20201;-74
2022/11/13 11:06:09;;;;;;;0.40;0.40;;;18.90;61.80;;;18.83;44.31;95900.16;4836847;29;20193;-74
2022/11/13 11:09:18;;;;;;;0.50;0.50;;;18.90;60.90;;;18.82;44.57;95891.41;4849161;29;20197;-74
2022/11/13 11:12:15;;;;;;;0.47;0.47;;;18.90;61.00;;;18.84;44.36;95888.50;4836026;29;20208;-74
2022/11/13 11:15:34;;;;;;;0.43;0.43;;;18.90;60.90;;;18.80;44.11;95890.78;4862870;29;20194;-74
2022/11/13 11:18:36;;;;;;;0.40;0.40;;;18.90;60.90;;;18.82;44.32;95890.56;4836581;29;20198;-74
2022/11/13 11:21:29;;;;;;;0.40;0.40;;;18.90;60.90;;;18.80;44.17;95893.44;4835983;29;20216;-74
2022/11/13 11:24:23;;;;;;;0.50;0.50;;;18.90;61.00;;;18.82;44.62;95887.91;4849031;29;20214;-75
2022/11/13 11:27:21;;;;;;;0.50;0.50;;;18.90;60.90;;;18.84;44.10;95885.84;4836128;29;20288;-74
2022/11/13 11:30:21;;;;;;;0.52;0.52;;;18.90;61.00;;;18.84;44.39;95885.84;4849009;29;20246;-74
2022/11/13 11:33:24;;;;;;;0.40;0.40;;;18.90;60.90;;;18.82;44.25;95880.75;4849230;29;20201;-74
2022/11/13 11:36:34;;;;;;;0.50;0.50;;;18.90;60.90;;;18.78;44.44;95855.63;4836760;29;20232;-74
2022/11/13 11:39:35;;;;;;;0.40;0.40;;;18.90;60.90;;;18.82;44.07;95867.47;4848940;29;20302;-74
2022/11/13 11:42:27;;;;;;;0.50;0.50;;;18.90;61.00;;;18.83;44.59;95862.94;4864289;29;20193;-74
2022/11/13 11:45:38;;;;;;;0.40;0.40;;;18.90;60.90;;;18.81;44.71;95855.22;4865070;29;20699;-74
2022/11/13 11:48:31;;;;;;;0.50;0.50;;;18.90;60.90;;;18.83;44.66;95854.97;4866037;29;20273;-74
2022/11/13 11:51:46;;;;;;;0.43;0.43;;;18.90;61.80;;;18.83;44.62;95852.31;4865298;29;20198;-74
2022/11/13 11:54:42;;;;;;;0.50;0.50;;;18.90;60.90;;;18.81;44.72;95846.41;4865096;29;20213;-75